Time;durP1;ratioP1;P1;durP2;ratioP2;P2;SDS_P1;SDS_P2;PMS_P1;PMS_P2;Temp;Humidity;BMP_temperature;BMP_pressure;BME280_temperature;BME280_humidity;BME280_pressure;Samples;Min_cycle;Max_cycle;Signal;HPM_P1;HPM_P2
2024/03/13 00:00:41;;;;;;;32.20;19.40;;;;;;;12.61;60.14;101256.29;107103;1260;22549;-59
2024/03/13 00:03:08;;;;;;;36.80;19.40;;;;;;;12.65;60.15;101249.95;107106;1257;25344;-59
2024/03/13 00:05:36;;;;;;;36.00;19.90;;;;;;;12.71;60.02;101249.63;107084;1257;25395;-59
2024/03/13 00:08:04;;;;;;;37.80;18.40;;;;;;;12.74;59.86;101248.86;107111;1262;25412;-59
2024/03/13 00:10:31;;;;;;;38.90;19.10;;;;;;;12.76;59.79;101248.11;106820;1269;24363;-60
2024/03/13 00:12:59;;;;;;;32.10;17.90;;;;;;;12.77;59.79;101245.48;107069;1258;22644;-59
2024/03/13 00:15:26;;;;;;;40.80;17.80;;;;;;;12.79;59.82;101242.47;106883;1269;25422;-60
2024/03/13 00:17:53;;;;;;;31.40;16.50;;;;;;;12.81;59.76;101240.17;107147;1257;25348;-59
2024/03/13 00:20:20;;;;;;;32.70;16.60;;;;;;;12.82;59.65;101241.19;107123;1257;25414;-60
2024/03/13 00:22:47;;;;;;;34.10;17.70;;;;;;;12.82;59.62;101241.20;107105;1263;25376;-61
2024/03/13 00:25:15;;;;;;;31.10;17.30;;;;;;;12.81;59.58;101239.30;106886;1256;25327;-61
2024/03/13 00:27:45;;;;;;;29.70;16.80;;;;;;;12.81;59.62;101234.08;106892;1259;25389;-61
2024/03/13 00:30:12;;;;;;;26.30;15.30;;;;;;;12.80;59.56;101237.05;106878;1254;25373;-60
2024/03/13 00:32:40;;;;;;;30.90;16.40;;;;;;;12.79;59.62;101230.46;106040;1265;1003486;-60
2024/03/13 00:35:07;;;;;;;28.70;16.10;;;;;;;12.78;59.61;101232.08;106582;1262;25344;-60
2024/03/13 00:37:34;;;;;;;34.60;16.90;;;;;;;12.77;59.62;101230.69;106724;1269;25431;-60
2024/03/13 00:40:03;;;;;;;33.80;15.90;;;;;;;12.77;59.66;101228.77;107108;1256;25554;-60
2024/03/13 00:42:30;;;;;;;27.00;14.90;;;;;;;12.78;59.77;101224.92;106910;1258;22624;-59
2024/03/13 00:44:57;;;;;;;28.60;14.80;;;;;;;12.78;59.83;101221.60;107054;1259;24728;-60
2024/03/13 00:47:24;;;;;;;37.40;15.70;;;;;;;12.78;59.85;101214.81;107002;1256;22530;-59
2024/03/13 00:49:54;;;;;;;32.70;16.10;;;;;;;12.78;59.82;101225.10;106953;1264;22576;-60
2024/03/13 00:52:21;;;;;;;27.70;14.20;;;;;;;12.77;59.89;101216.25;106804;1257;25485;-59
2024/03/13 00:54:49;;;;;;;22.20;13.50;;;;;;;12.75;60.00;101216.98;106819;1264;25354;-59
2024/03/13 00:57:17;;;;;;;30.40;14.60;;;;;;;12.72;60.13;101216.35;106977;1256;25418;-59
2024/03/13 00:59:44;;;;;;;31.80;15.20;;;;;;;12.76;59.92;101210.85;107095;1256;25422;-60
2024/03/13 01:02:12;;;;;;;27.60;14.60;;;;;;;12.76;59.88;101208.27;107141;1265;25373;-60
2024/03/13 01:04:39;;;;;;;27.80;14.50;;;;;;;12.75;59.93;101206.89;107134;1259;25425;-59
2024/03/13 01:07:09;;;;;;;27.70;15.10;;;;;;;12.74;59.94;101205.68;107157;1251;25413;-59
2024/03/13 01:09:38;;;;;;;30.30;14.40;;;;;;;12.75;59.96;101203.42;107025;1256;25327;-59
2024/03/13 01:12:06;;;;;;;29.90;14.10;;;;;;;12.75;60.13;101206.20;107112;1256;25425;-60
2024/03/13 01:14:33;;;;;;;28.70;14.10;;;;;;;12.76;60.15;101204.61;107143;1256;22621;-60
2024/03/13 01:17:02;;;;;;;29.60;15.00;;;;;;;12.76;60.15;101206.33;106816;1262;25356;-59
2024/03/13 01:19:36;;;;;;;31.60;14.30;;;;;;;12.73;60.21;101198.23;106359;1259;1002819;-59
2024/03/13 01:22:05;;;;;;;34.40;16.10;;;;;;;12.74;60.06;101201.70;106809;1267;25346;-59
2024/03/13 01:24:32;;;;;;;29.50;15.80;;;;;;;12.73;60.11;101204.48;106714;1265;25347;-59
2024/03/13 01:27:00;;;;;;;28.70;15.50;;;;;;;12.73;60.05;101202.07;107055;1259;25460;-60
2024/03/13 01:29:26;;;;;;;31.00;15.90;;;;;;;12.72;60.09;101198.10;107010;1259;24206;-59
2024/03/13 01:31:57;;;;;;;29.90;15.30;;;;;;;12.72;60.07;101196.52;107138;1256;25357;-59
2024/03/13 01:34:24;;;;;;;34.50;17.00;;;;;;;12.70;60.09;101189.77;107014;1256;25453;-59
2024/03/13 01:39:38;;;;;;;36.10;17.50;;;;;;;12.67;60.00;101182.20;107051;1255;25334;-59
2024/03/13 01:56:21;;;;;;;35.00;18.80;;;;;;;12.59;59.90;101164.44;106981;1263;24206;-59
2024/03/13 01:59:02;;;;;;;36.90;20.30;;;;;;;12.58;59.83;101166.05;106903;1267;25335;-59
2024/03/13 02:04:16;;;;;;;40.20;21.00;;;;;;;12.54;59.77;101167.52;107030;1256;25330;-59
2024/03/13 02:06:45;;;;;;;35.60;18.70;;;;;;;12.52;59.78;101168.11;107034;1264;22751;-59
2024/03/13 02:09:12;;;;;;;30.80;19.50;;;;;;;12.50;59.87;101167.61;106975;1268;25338;-59
2024/03/13 02:11:39;;;;;;;34.60;19.80;;;;;;;12.48;59.88;101166.44;106976;1259;23280;-59
2024/03/13 02:14:07;;;;;;;31.90;19.70;;;;;;;12.47;59.89;101166.83;106939;1259;25373;-59
2024/03/13 02:16:34;;;;;;;38.80;20.30;;;;;;;12.46;59.90;101162.85;106926;1256;25463;-59
2024/03/13 02:19:02;;;;;;;33.70;19.00;;;;;;;12.46;59.93;101164.42;106808;1259;25373;-59
2024/03/13 02:21:32;;;;;;;45.00;20.20;;;;;;;12.44;59.95;101159.92;106717;1259;22535;-59
2024/03/13 02:23:59;;;;;;;32.20;18.40;;;;;;;12.43;59.98;101155.58;106850;1260;25444;-59
2024/03/13 02:26:27;;;;;;;30.40;18.10;;;;;;;12.43;59.96;101156.83;107187;1269;25465;-59
2024/03/13 02:28:53;;;;;;;36.70;18.70;;;;;;;12.43;59.98;101155.61;107049;1256;25494;-58
2024/03/13 02:31:20;;;;;;;34.90;19.10;;;;;;;12.43;60.00;101159.77;107033;1256;25363;-59
2024/03/13 02:33:47;;;;;;;36.00;19.00;;;;;;;12.43;59.95;101160.81;107144;1256;23237;-59
2024/03/13 02:36:15;;;;;;;34.20;18.80;;;;;;;12.42;60.01;101166.95;107140;1256;25402;-59
2024/03/13 02:38:44;;;;;;;35.30;17.00;;;;;;;12.43;59.95;101163.44;106987;1259;25355;-58
2024/03/13 02:41:11;;;;;;;30.40;17.20;;;;;;;12.43;59.93;101162.55;107051;1256;25405;-59
2024/03/13 02:43:41;;;;;;;29.00;18.00;;;;;;;12.41;59.94;101165.38;106995;1259;25362;-58
2024/03/13 02:46:08;;;;;;;25.80;15.90;;;;;;;12.34;60.17;101159.46;107038;1262;25495;-59
2024/03/13 02:48:36;;;;;;;32.00;17.00;;;;;;;12.43;59.90;101158.91;107102;1259;25396;-58
2024/03/13 02:51:04;;;;;;;31.80;17.10;;;;;;;12.43;59.87;101160.81;106811;1267;25338;-59
2024/03/13 02:53:31;;;;;;;29.70;15.60;;;;;;;12.43;59.91;101161.50;107122;1263;25440;-59
2024/03/13 02:55:58;;;;;;;23.90;14.80;;;;;;;12.45;59.86;101160.08;106867;1260;25378;-59
2024/03/13 02:58:25;;;;;;;33.30;17.00;;;;;;;12.45;59.78;101159.56;106826;1260;25404;-59
2024/03/13 03:00:54;;;;;;;32.00;15.80;;;;;;;12.45;59.71;101159.21;107070;1259;25362;-59
2024/03/13 03:03:21;;;;;;;28.30;15.00;;;;;;;12.45;59.86;101153.12;107031;1266;22581;-59
2024/03/13 03:05:48;;;;;;;26.80;16.00;;;;;;;12.44;59.86;101155.41;107114;1259;25345;-59
2024/03/13 03:08:15;;;;;;;31.10;15.30;;;;;;;12.46;59.66;101158.14;106146;1269;1005455;-59
2024/03/13 03:10:42;;;;;;;26.10;14.80;;;;;;;12.46;59.53;101153.96;107117;1261;25335;-59
2024/03/13 03:13:10;;;;;;;30.30;15.70;;;;;;;12.46;59.55;101151.54;106319;1270;1003777;-59
2024/03/13 03:15:39;;;;;;;30.30;16.40;;;;;;;12.45;59.56;101154.85;106912;1268;25287;-59
2024/03/13 03:18:06;;;;;;;33.30;16.20;;;;;;;12.45;59.59;101150.50;107168;1261;25424;-59
2024/03/13 03:20:33;;;;;;;29.90;16.20;;;;;;;12.48;59.58;101148.71;107186;1263;25377;-59
2024/03/13 03:23:00;;;;;;;35.40;15.70;;;;;;;12.50;59.60;101149.71;107095;1257;25494;-59
2024/03/13 03:25:28;;;;;;;30.00;16.50;;;;;;;12.51;59.52;101152.61;107121;1260;25334;-59
2024/03/13 03:27:58;;;;;;;33.30;15.30;;;;;;;12.53;59.59;101152.05;107135;1260;22631;-60
2024/03/13 03:30:30;;;;;;;32.50;16.00;;;;;;;12.54;59.72;101150.46;107163;1256;25421;-60
2024/03/13 03:33:00;;;;;;;35.00;16.00;;;;;;;12.57;59.64;101146.38;107083;1257;25331;-60
2024/03/13 03:35:27;;;;;;;35.00;16.30;;;;;;;12.61;59.55;101146.99;107072;1271;25335;-60
2024/03/13 03:37:55;;;;;;;27.40;16.00;;;;;;;12.64;59.35;101142.41;107073;1260;25334;-59
2024/03/13 03:40:23;;;;;;;28.00;14.90;;;;;;;12.66;59.33;101142.52;107152;1257;25335;-60
2024/03/13 03:42:50;;;;;;;30.90;14.60;;;;;;;12.67;59.15;101139.55;106860;1260;22531;-60
2024/03/13 03:45:17;;;;;;;25.90;14.40;;;;;;;12.65;59.09;101136.61;107112;1257;25343;-60
2024/03/13 03:47:44;;;;;;;28.60;14.20;;;;;;;12.64;59.04;101135.77;107085;1264;23231;-60
2024/03/13 03:50:21;;;;;;;33.30;16.20;;;;;;;12.61;59.07;101132.55;107114;1251;25440;-60
2024/03/13 03:52:48;;;;;;;24.80;14.60;;;;;;;12.60;59.12;101134.84;107087;1264;25331;-60
2024/03/13 03:55:15;;;;;;;34.20;15.60;;;;;;;12.58;59.19;101135.59;107086;1256;25491;-59
2024/03/13 03:57:42;;;;;;;36.70;15.10;;;;;;;12.56;59.16;101135.64;107182;1257;25434;-60
2024/03/13 04:00:13;;;;;;;28.60;14.60;;;;;;;12.56;59.29;101135.11;106831;1260;25404;-60
2024/03/13 04:02:41;;;;;;;29.60;15.70;;;;;;;12.57;59.31;101135.94;106903;1258;25334;-60
2024/03/13 04:05:08;;;;;;;28.80;14.20;;;;;;;12.58;59.17;101139.07;106841;1262;25480;-62
2024/03/13 04:07:39;;;;;;;33.10;16.30;;;;;;;12.57;59.17;101135.80;106820;1266;22535;-61
2024/03/13 04:10:06;;;;;;;30.70;13.90;;;;;;;12.56;59.27;101135.46;106877;1266;25469;-61
2024/03/13 04:12:34;;;;;;;36.00;14.40;;;;;;;12.56;59.29;101139.46;106767;1263;22602;-62
2024/03/13 04:15:05;;;;;;;30.20;14.00;;;;;;;12.56;59.20;101144.51;106769;1257;25425;-61
2024/03/13 04:17:35;;;;;;;36.30;14.90;;;;;;;12.56;59.17;101145.02;106435;1270;25396;-61
2024/03/13 04:20:03;;;;;;;31.10;15.00;;;;;;;12.56;59.10;101143.81;106658;1260;25501;-62
2024/03/13 04:22:31;;;;;;;28.20;12.80;;;;;;;12.54;59.04;101146.98;107041;1263;25363;-62
2024/03/13 04:24:59;;;;;;;24.20;13.70;;;;;;;12.52;59.12;101142.52;107076;1267;25403;-62
2024/03/13 04:27:27;;;;;;;30.70;14.60;;;;;;;12.50;59.19;101132.63;107118;1266;24011;-62
2024/03/13 04:29:55;;;;;;;35.50;14.60;;;;;;;12.52;59.21;101139.91;106831;1265;25353;-62
2024/03/13 04:32:22;;;;;;;31.20;13.60;;;;;;;12.51;59.23;101137.30;107117;1256;25366;-62
2024/03/13 04:34:50;;;;;;;34.80;14.30;;;;;;;12.52;59.29;101132.27;106836;1261;25373;-62
2024/03/13 04:37:17;;;;;;;29.50;13.90;;;;;;;12.53;59.40;101131.35;107063;1264;25360;-64
2024/03/13 04:39:44;;;;;;;31.00;13.90;;;;;;;12.55;59.30;101130.77;106784;1260;25369;-63
2024/03/13 04:42:12;;;;;;;30.80;13.20;;;;;;;12.56;59.30;101131.63;106708;1270;25519;-62
2024/03/13 04:44:39;;;;;;;27.00;13.10;;;;;;;12.56;59.33;101129.70;107095;1270;25334;-63
2024/03/13 04:47:07;;;;;;;39.30;13.80;;;;;;;12.56;59.37;101133.55;107223;1265;23223;-63
2024/03/13 04:49:35;;;;;;;30.40;13.30;;;;;;;12.56;59.42;101129.02;106781;1272;25338;-62
2024/03/13 04:52:05;;;;;;;32.60;12.50;;;;;;;12.55;59.46;101130.59;107094;1267;25338;-62
2024/03/13 04:54:32;;;;;;;28.20;12.30;;;;;;;12.55;59.56;101130.41;106997;1269;25390;-61
2024/03/13 04:57:00;;;;;;;24.00;11.60;;;;;;;12.55;59.60;101129.55;107008;1264;25806;-61
2024/03/13 04:59:27;;;;;;;27.20;12.00;;;;;;;12.50;59.82;101133.00;106991;1267;25344;-61
2024/03/13 05:01:54;;;;;;;22.50;11.20;;;;;;;12.49;59.85;101130.21;107098;1261;25411;-61
2024/03/13 05:04:22;;;;;;;32.30;12.60;;;;;;;12.52;59.73;101129.82;106870;1267;23253;-60
2024/03/13 05:06:50;;;;;;;25.00;11.70;;;;;;;12.50;59.71;101126.20;107147;1251;23052;-60
2024/03/13 05:09:17;;;;;;;27.80;11.50;;;;;;;12.50;59.69;101123.09;107015;1270;22553;-60
2024/03/13 05:11:44;;;;;;;24.10;10.50;;;;;;;12.46;59.70;101126.48;107098;1264;25410;-60
2024/03/13 05:14:11;;;;;;;26.20;11.30;;;;;;;12.45;59.59;101123.02;107023;1261;25386;-60
2024/03/13 05:16:41;;;;;;;33.30;10.90;;;;;;;12.41;59.53;101129.02;106789;1260;25355;-60
2024/03/13 05:19:08;;;;;;;28.10;10.80;;;;;;;12.38;59.59;101133.63;106876;1267;25366;-60
2024/03/13 05:21:36;;;;;;;31.90;10.90;;;;;;;12.35;59.61;101133.34;106801;1267;23209;-59
2024/03/13 05:24:06;;;;;;;26.00;10.70;;;;;;;12.34;59.59;101127.11;107075;1266;25347;-59
2024/03/13 05:26:33;;;;;;;28.20;11.70;;;;;;;12.32;59.57;101133.60;107034;1261;24037;-59
2024/03/13 05:29:02;;;;;;;32.20;12.40;;;;;;;12.29;59.54;101126.88;107149;1264;24251;-60
2024/03/13 05:31:29;;;;;;;26.70;11.90;;;;;;;12.26;59.57;101118.44;106359;1257;1002858;-59
2024/03/13 05:33:57;;;;;;;39.10;14.60;;;;;;;12.23;59.50;101120.58;107081;1257;25363;-60
2024/03/13 05:36:24;;;;;;;25.80;12.80;;;;;;;12.20;59.53;101123.93;107100;1257;25796;-59
2024/03/13 05:38:51;;;;;;;32.40;12.20;;;;;;;12.18;59.64;101123.98;107091;1251;25382;-59
2024/03/13 05:41:19;;;;;;;25.80;12.90;;;;;;;12.19;59.67;101129.36;107005;1258;25425;-60
2024/03/13 05:43:46;;;;;;;29.20;13.20;;;;;;;12.19;59.55;101120.84;107185;1263;25335;-59
2024/03/13 05:46:13;;;;;;;29.40;12.70;;;;;;;12.11;59.95;101122.60;107086;1267;25487;-60
2024/03/13 05:48:40;;;;;;;31.30;13.60;;;;;;;12.01;60.31;101123.34;107030;1261;25429;-60
2024/03/13 05:51:08;;;;;;;23.80;12.10;;;;;;;12.00;60.38;101123.00;106313;1267;1005630;-61
2024/03/13 05:53:36;;;;;;;26.30;13.40;;;;;;;12.00;60.17;101125.77;106713;1261;25367;-59
2024/03/13 05:56:05;;;;;;;30.60;12.90;;;;;;;11.93;60.38;101125.08;106237;1267;1003710;-60
2024/03/13 05:58:32;;;;;;;36.30;13.90;;;;;;;11.99;60.12;101117.27;106574;1267;25309;-60
2024/03/13 06:01:01;;;;;;;28.50;12.90;;;;;;;12.00;60.03;101117.63;106908;1267;22656;-61
2024/03/13 06:03:29;;;;;;;28.10;12.70;;;;;;;11.98;59.93;101124.78;106814;1257;25348;-60
2024/03/13 06:05:56;;;;;;;26.80;12.50;;;;;;;11.95;59.85;101127.47;106915;1267;25404;-60
2024/03/13 06:08:23;;;;;;;32.80;13.80;;;;;;;11.93;59.86;101133.60;107124;1257;25335;-60
2024/03/13 06:10:50;;;;;;;38.20;13.90;;;;;;;11.91;59.92;101135.55;106090;1254;1003136;-63
2024/03/13 06:13:17;;;;;;;26.40;12.50;;;;;;;11.90;59.91;101144.10;106304;1272;1002855;-65
2024/03/13 06:15:45;;;;;;;27.90;13.10;;;;;;;11.89;59.89;101149.17;106982;1267;25353;-64
2024/03/13 06:18:13;;;;;;;28.70;14.60;;;;;;;11.88;60.01;101148.48;107155;1257;25337;-64
2024/03/13 06:20:40;;;;;;;22.50;11.90;;;;;;;11.89;60.02;101148.81;107045;1267;24229;-63
2024/03/13 06:23:07;;;;;;;32.50;13.80;;;;;;;11.89;59.97;101154.20;107196;1267;25338;-66
2024/03/13 06:25:41;;;;;;;26.50;13.20;;;;;;;11.88;59.90;101151.79;107188;1267;25347;-66
2024/03/13 06:30:54;;;;;;;25.20;14.20;;;;;;;11.84;59.84;101160.39;107110;1273;25342;-66
2024/03/13 06:33:21;;;;;;;29.70;14.10;;;;;;;11.82;59.90;101158.34;106002;1267;1003551;-67
2024/03/13 06:35:48;;;;;;;28.20;13.50;;;;;;;11.80;59.96;101160.29;107009;1267;24216;-66
2024/03/13 06:38:15;;;;;;;27.00;12.80;;;;;;;11.80;60.04;101164.64;106727;1261;25412;-65
2024/03/13 06:40:42;;;;;;;32.00;14.00;;;;;;;11.80;60.06;101163.42;107117;1267;25342;-67
2024/03/13 06:43:10;;;;;;;31.80;13.50;;;;;;;11.80;60.13;101159.77;106746;1267;25485;-67
2024/03/13 06:45:41;;;;;;;32.80;14.10;;;;;;;11.78;60.22;101161.38;106823;1267;25424;-66
2024/03/13 06:48:08;;;;;;;33.30;13.80;;;;;;;11.78;60.14;101160.66;107092;1267;23313;-68
2024/03/13 06:50:35;;;;;;;34.50;14.60;;;;;;;11.80;60.11;101159.42;106967;1263;22536;-67
2024/03/13 06:53:03;;;;;;;29.10;14.60;;;;;;;11.80;60.30;101159.94;107086;1267;25374;-68
2024/03/13 06:55:30;;;;;;;29.00;13.10;;;;;;;11.82;60.31;101156.61;107136;1267;25427;-67
2024/03/13 06:57:58;;;;;;;33.30;13.50;;;;;;;11.84;60.26;101155.52;107094;1267;25396;-67
2024/03/13 07:00:27;;;;;;;30.10;14.30;;;;;;;11.81;60.40;101154.55;107125;1256;25337;-66
2024/03/13 07:02:59;;;;;;;31.10;14.30;;;;;;;11.80;60.48;101152.30;106262;1267;1003839;-64
2024/03/13 07:05:26;;;;;;;23.60;13.50;;;;;;;11.87;60.35;101150.06;106327;1267;1003566;-62
2024/03/13 07:07:57;;;;;;;22.60;13.70;;;;;;;11.89;60.30;101151.42;106961;1271;25479;-59
2024/03/13 07:10:24;;;;;;;26.10;13.20;;;;;;;11.89;60.36;101147.42;107030;1261;25428;-60
2024/03/13 07:12:51;;;;;;;32.20;14.70;;;;;;;11.91;60.24;101146.50;107016;1267;23443;-59
2024/03/13 07:15:18;;;;;;;28.00;12.70;;;;;;;11.92;60.21;101147.55;107130;1257;25412;-59
2024/03/13 07:17:45;;;;;;;25.10;14.60;;;;;;;11.93;60.24;101152.70;107055;1267;25352;-59
2024/03/13 07:20:13;;;;;;;27.10;13.40;;;;;;;11.95;60.18;101151.28;106767;1267;25356;-61
2024/03/13 07:22:40;;;;;;;28.90;13.80;;;;;;;11.97;60.14;101151.24;106932;1270;25385;-60
2024/03/13 07:25:09;;;;;;;33.10;15.40;;;;;;;11.99;60.22;101154.16;106869;1267;25460;-60
2024/03/13 07:27:36;;;;;;;27.30;14.20;;;;;;;12.00;60.19;101155.18;107098;1267;22853;-60
2024/03/13 07:30:07;;;;;;;25.70;13.40;;;;;;;12.02;60.07;101151.13;107043;1270;25515;-59
2024/03/13 07:32:35;;;;;;;25.90;13.00;;;;;;;12.05;60.01;101151.24;107101;1256;25409;-60
2024/03/13 07:35:03;;;;;;;28.40;14.30;;;;;;;12.04;59.93;101155.60;107033;1270;25486;-59
2024/03/13 07:37:31;;;;;;;25.70;13.90;;;;;;;12.04;59.87;101160.82;106893;1267;23906;-59
2024/03/13 07:39:59;;;;;;;32.40;13.30;;;;;;;12.04;59.74;101158.74;107164;1267;23111;-59
2024/03/13 07:42:26;;;;;;;21.40;12.60;;;;;;;12.05;59.69;101158.89;107030;1263;25411;-60
2024/03/13 07:44:56;;;;;;;22.90;12.90;;;;;;;12.06;59.71;101162.01;106797;1267;25352;-60
2024/03/13 07:47:23;;;;;;;32.90;14.30;;;;;;;12.07;59.52;101163.02;106868;1269;25412;-60
2024/03/13 07:49:50;;;;;;;31.10;13.60;;;;;;;12.05;59.53;101162.89;106890;1257;25414;-60
2024/03/13 07:52:18;;;;;;;27.70;12.60;;;;;;;11.98;59.80;101164.09;107056;1266;25337;-60
2024/03/13 07:54:45;;;;;;;27.30;13.90;;;;;;;12.02;59.68;101163.98;107084;1267;25425;-60
2024/03/13 07:57:13;;;;;;;24.70;13.40;;;;;;;12.07;59.52;101165.11;107049;1259;25407;-60
2024/03/13 07:59:45;;;;;;;24.30;13.00;;;;;;;12.08;59.48;101164.73;107145;1270;25361;-60
2024/03/13 08:02:14;;;;;;;26.10;12.80;;;;;;;12.10;59.44;101163.48;107063;1267;25406;-60
2024/03/13 08:04:41;;;;;;;28.70;13.60;;;;;;;12.09;59.36;101158.98;106980;1267;24208;-60
2024/03/13 08:07:08;;;;;;;32.90;13.90;;;;;;;12.10;59.41;101162.09;106402;1274;25436;-62
2024/03/13 08:09:54;;;;;;;29.30;12.70;;;;;;;12.11;59.45;101153.38;107090;1268;25369;-63
2024/03/13 08:12:39;;;;;;;25.90;12.30;;;;;;;12.12;59.35;101151.60;106864;1267;25458;-62
2024/03/13 08:15:24;;;;;;;23.80;11.80;;;;;;;12.15;59.37;101155.55;107046;1267;25250;-62
2024/03/13 08:18:14;;;;;;;20.70;12.10;;;;;;;12.15;59.25;101149.27;107010;1267;25348;-62
2024/03/13 08:20:59;;;;;;;22.60;14.30;;;;;;;12.17;59.30;101146.61;107114;1267;25348;-63
2024/03/13 08:23:44;;;;;;;30.30;12.90;;;;;;;12.18;59.22;101143.81;107028;1267;23308;-63
2024/03/13 08:26:30;;;;;;;24.80;12.60;;;;;;;12.18;59.14;101143.29;107011;1256;25365;-64
2024/03/13 08:29:15;;;;;;;26.60;13.80;;;;;;;12.19;59.12;101146.58;107017;1267;25377;-64
2024/03/13 08:32:00;;;;;;;21.00;12.70;;;;;;;12.20;58.97;101143.94;106998;1267;25485;-66
2024/03/13 08:34:45;;;;;;;26.50;13.50;;;;;;;12.18;59.01;101141.90;106825;1267;25406;-67
2024/03/13 08:37:31;;;;;;;27.30;13.00;;;;;;;12.18;58.98;101140.86;106752;1269;25365;-68
2024/03/13 08:40:16;;;;;;;24.40;13.70;;;;;;;12.17;58.90;101142.08;106988;1274;25561;-69
2024/03/13 08:43:02;;;;;;;33.20;13.90;;;;;;;12.17;58.92;101141.93;106827;1267;25387;-68
2024/03/13 08:45:47;;;;;;;30.20;13.50;;;;;;;12.16;58.79;101146.83;107042;1268;25334;-70
2024/03/13 08:48:32;;;;;;;20.00;12.40;;;;;;;12.13;58.80;101143.23;106077;1272;1003030;-70
2024/03/13 08:51:17;;;;;;;30.30;13.00;;;;;;;12.07;58.95;101145.45;106902;1267;22739;-71
2024/03/13 08:54:05;;;;;;;27.60;13.60;;;;;;;12.11;58.87;101139.44;107100;1267;25348;-73
2024/03/13 08:56:50;;;;;;;29.20;13.30;;;;;;;12.09;58.99;101140.02;107159;1267;23403;-74
2024/03/13 08:59:36;;;;;;;26.40;13.50;;;;;;;12.15;58.96;101144.06;107068;1267;25362;-75
2024/03/13 09:02:21;;;;;;;22.70;12.80;;;;;;;12.16;58.74;101141.61;106988;1267;22620;-76
2024/03/13 09:05:07;;;;;;;30.10;14.50;;;;;;;12.15;58.69;101144.41;106412;1277;22579;-76
2024/03/13 09:07:52;;;;;;;29.60;14.90;;;;;;;12.15;58.74;101144.05;106682;1272;22537;-76
2024/03/13 09:10:19;;;;;;;34.40;14.70;;;;;;;12.17;58.72;101142.10;106815;1271;22784;-75
2024/03/13 09:12:46;;;;;;;30.00;14.40;;;;;;;12.17;58.58;101144.02;106759;1278;22527;-74
2024/03/13 09:15:16;;;;;;;22.40;13.30;;;;;;;12.16;58.60;101144.91;106551;1279;24331;-73
2024/03/13 09:17:43;;;;;;;24.10;13.40;;;;;;;12.15;58.55;101145.27;106752;1273;22554;-73
2024/03/13 09:20:13;;;;;;;24.30;13.60;;;;;;;12.14;58.53;101145.81;106607;1272;25394;-73
2024/03/13 09:22:44;;;;;;;28.70;13.70;;;;;;;12.14;58.60;101146.86;106724;1273;26587;-73
2024/03/13 09:25:13;;;;;;;36.90;15.00;;;;;;;12.13;58.59;101147.94;107034;1271;22622;-72
2024/03/13 09:27:41;;;;;;;29.60;15.10;;;;;;;12.13;58.48;101146.02;106877;1269;24245;-71
2024/03/13 09:30:08;;;;;;;29.00;13.00;;;;;;;12.12;58.59;101150.39;106495;1273;25535;-71
2024/03/13 09:32:36;;;;;;;39.30;14.60;;;;;;;12.14;58.59;101143.56;106267;1273;22688;-71
2024/03/13 09:35:04;;;;;;;23.90;12.80;;;;;;;12.14;58.64;101144.61;106160;1278;25457;-70
2024/03/13 09:37:32;;;;;;;24.00;14.40;;;;;;;12.15;58.51;101145.80;106742;1270;25493;-69
2024/03/13 09:39:59;;;;;;;23.70;13.70;;;;;;;12.16;58.54;101147.67;107048;1267;25381;-70
2024/03/13 09:42:29;;;;;;;29.80;12.20;;;;;;;12.19;58.59;101148.67;106737;1271;25418;-68
2024/03/13 09:44:56;;;;;;;24.10;14.60;;;;;;;12.21;58.46;101145.33;106159;1268;1003048;-68
2024/03/13 09:47:26;;;;;;;27.50;13.40;;;;;;;12.21;58.36;101146.54;106813;1271;25407;-67
2024/03/13 09:49:54;;;;;;;27.60;13.30;;;;;;;12.30;57.99;101145.48;107119;1267;25387;-67
2024/03/13 09:52:24;;;;;;;28.70;13.70;;;;;;;12.34;57.77;101149.21;105920;1273;1002844;-69
2024/03/13 09:54:51;;;;;;;28.90;13.80;;;;;;;12.35;57.68;101149.36;106150;1267;1002824;-66
2024/03/13 09:57:19;;;;;;;25.40;13.50;;;;;;;12.35;57.59;101151.45;106813;1267;25383;-66
2024/03/13 09:59:47;;;;;;;23.60;12.70;;;;;;;12.31;57.64;101155.17;106861;1251;25407;-66
2024/03/13 10:02:21;;;;;;;33.40;14.30;;;;;;;12.25;57.80;101151.49;107106;1267;25357;-66
2024/03/13 10:04:48;;;;;;;28.70;13.10;;;;;;;12.31;57.74;101150.66;107007;1269;25526;-65
2024/03/13 10:07:19;;;;;;;22.60;12.70;;;;;;;12.32;57.70;101156.20;106355;1267;1003075;-64
2024/03/13 10:09:47;;;;;;;26.30;13.40;;;;;;;12.33;57.58;101157.39;107043;1267;25590;-64
2024/03/13 10:12:20;;;;;;;26.10;12.70;;;;;;;12.33;57.41;101160.01;107062;1267;25400;-63
2024/03/13 10:14:51;;;;;;;28.20;15.00;;;;;;;12.33;57.37;101157.41;106829;1267;25324;-65
2024/03/13 10:17:21;;;;;;;28.00;13.80;;;;;;;12.34;57.46;101158.61;107109;1267;25793;-64
2024/03/13 10:19:48;;;;;;;25.50;12.50;;;;;;;12.34;57.43;101153.55;107063;1267;25335;-64
2024/03/13 10:22:15;;;;;;;27.70;12.90;;;;;;;12.34;57.44;101155.46;106769;1273;25437;-63
2024/03/13 10:24:42;;;;;;;24.10;13.20;;;;;;;12.34;57.47;101154.42;106803;1269;25398;-64
2024/03/13 10:27:13;;;;;;;25.80;13.40;;;;;;;12.33;57.35;101151.48;107104;1267;25366;-63
2024/03/13 10:29:43;;;;;;;24.40;13.20;;;;;;;12.32;57.44;101155.68;107203;1268;25361;-62
2024/03/13 10:32:10;;;;;;;28.50;14.00;;;;;;;12.33;57.50;101152.20;107148;1267;22535;-63
2024/03/13 10:34:38;;;;;;;24.80;12.70;;;;;;;12.34;57.58;101152.69;106838;1268;25475;-63
2024/03/13 10:37:11;;;;;;;26.60;13.30;;;;;;;12.36;57.61;101154.55;106350;1266;1002292;-62
2024/03/13 10:39:41;;;;;;;26.60;12.60;;;;;;;12.37;57.46;101153.98;107095;1267;25377;-62
2024/03/13 10:42:09;;;;;;;25.30;13.10;;;;;;;12.38;57.39;101145.98;107086;1271;25369;-62
2024/03/13 10:44:37;;;;;;;28.90;12.60;;;;;;;12.39;57.37;101145.60;107121;1267;25453;-63
2024/03/13 10:47:07;;;;;;;22.70;12.80;;;;;;;12.41;57.37;101140.85;107164;1267;25394;-62
2024/03/13 10:49:37;;;;;;;28.90;13.20;;;;;;;12.43;57.32;101141.67;106892;1267;247555;-62
2024/03/13 10:52:12;;;;;;;30.50;14.40;;;;;;;12.45;57.33;101139.72;106105;1267;1003182;-62
2024/03/13 10:54:40;;;;;;;25.30;12.90;;;;;;;12.46;57.12;101141.61;107032;1267;25366;-62
2024/03/13 10:57:14;;;;;;;21.40;13.10;;;;;;;12.45;57.00;101140.41;107006;1267;25250;-63
2024/03/13 10:59:41;;;;;;;27.60;13.90;;;;;;;12.46;57.04;101131.36;106909;1270;25363;-62
2024/03/13 11:02:08;;;;;;;25.10;13.70;;;;;;;12.46;57.08;101129.77;106686;1267;23741;-62
2024/03/13 11:04:36;;;;;;;26.40;14.20;;;;;;;12.45;57.28;101126.31;106802;1267;25412;-62
2024/03/13 11:07:04;;;;;;;27.00;13.90;;;;;;;12.48;57.24;101119.64;106078;1267;1003760;-62
2024/03/13 11:09:33;;;;;;;27.80;14.80;;;;;;;12.48;57.21;101119.65;107091;1271;25419;-62
2024/03/13 11:12:00;;;;;;;23.90;13.10;;;;;;;12.46;57.20;101119.16;107223;1267;25373;-62
2024/03/13 11:14:27;;;;;;;27.40;14.10;;;;;;;12.46;57.14;101119.52;107061;1267;25409;-62
2024/03/13 11:16:57;;;;;;;25.20;13.60;;;;;;;12.45;57.19;101114.84;106837;1270;25348;-61
2024/03/13 11:19:25;;;;;;;27.00;13.20;;;;;;;12.44;57.15;101114.70;107120;1269;22527;-61
2024/03/13 11:21:57;;;;;;;23.10;13.30;;;;;;;12.43;57.18;101114.55;106906;1269;24338;-61
2024/03/13 11:24:31;;;;;;;26.30;13.40;;;;;;;12.42;57.20;101111.44;106943;1269;25432;-61
2024/03/13 11:27:08;;;;;;;28.20;14.50;;;;;;;12.42;57.13;101117.86;107084;1267;25426;-61
2024/03/13 11:29:43;;;;;;;26.50;14.40;;;;;;;12.32;57.21;101117.58;107033;1267;22647;-61
2024/03/13 11:32:12;;;;;;;34.20;13.30;;;;;;;12.30;57.42;101109.28;107078;1267;22524;-61